Eastmain, Canada
Current Conditions -  °F | °C
As of 11:00 PM on Wednesday 28 Jan 2015 (Local Time) from CYGL Reporting Station
Overcast Overcast  
Wind Chill: -9°   Ceiling: 600
Heat Index: -9°   Visibility: 15mi
Dew Point: -13°   Wind: 3mph
Humidity: 84%   Direction: 300°WNW
Pressure: 30.09"   Gusts: NA
Location:  52.23°N, 78.52°W
Report Text: CYGL 290400Z 30003KT 15SM OVC006 M23/M25 A3009 RMK ST8 SLP214
Loading
Personal Weather Stations






























Interactive Weather Map New forecast layout! Learn more

10-Day Weather Forecast

Advertisements
Track Severe Weather on mobile